sensor_id;sensor_type;location;lat;lon;timestamp;P1;durP1;ratioP1;P2;durP2;ratioP2
6015;SDS011;3036;49.960;8.454;2023-06-22T00:00:34;2.92;;;2.72;;
6015;SDS011;3036;49.960;8.454;2023-06-22T00:03:01;2.85;;;2.75;;
6015;SDS011;3036;49.960;8.454;2023-06-22T00:05:28;4.57;;;2.88;;
6015;SDS011;3036;49.960;8.454;2023-06-22T00:07:56;3.40;;;3.10;;
6015;SDS011;3036;49.960;8.454;2023-06-22T00:10:23;3.28;;;3.08;;
6015;SDS011;3036;49.960;8.454;2023-06-22T00:12:50;3.03;;;2.83;;
6015;SDS011;3036;49.960;8.454;2023-06-22T00:15:17;3.17;;;2.97;;
6015;SDS011;3036;49.960;8.454;2023-06-22T00:17:45;2.80;;;2.70;;
6015;SDS011;3036;49.960;8.454;2023-06-22T00:20:12;3.55;;;3.35;;
6015;SDS011;3036;49.960;8.454;2023-06-22T00:22:39;3.15;;;2.95;;
6015;SDS011;3036;49.960;8.454;2023-06-22T00:25:09;3.30;;;3.10;;
6015;SDS011;3036;49.960;8.454;2023-06-22T00:27:37;3.05;;;2.95;;
6015;SDS011;3036;49.960;8.454;2023-06-22T00:30:04;3.08;;;2.90;;
6015;SDS011;3036;49.960;8.454;2023-06-22T00:32:31;3.63;;;3.00;;
6015;SDS011;3036;49.960;8.454;2023-06-22T00:34:58;3.55;;;3.05;;
6015;SDS011;3036;49.960;8.454;2023-06-22T00:37:26;2.95;;;2.85;;
6015;SDS011;3036;49.960;8.454;2023-06-22T00:39:54;3.28;;;3.08;;
6015;SDS011;3036;49.960;8.454;2023-06-22T00:42:23;3.15;;;2.95;;
6015;SDS011;3036;49.960;8.454;2023-06-22T00:44:50;3.58;;;3.35;;
6015;SDS011;3036;49.960;8.454;2023-06-22T00:47:17;3.03;;;2.83;;
6015;SDS011;3036;49.960;8.454;2023-06-22T00:49:44;3.38;;;3.10;;
6015;SDS011;3036;49.960;8.454;2023-06-22T00:52:12;3.03;;;2.88;;
6015;SDS011;3036;49.960;8.454;2023-06-22T00:54:45;3.17;;;2.90;;
6015;SDS011;3036;49.960;8.454;2023-06-22T00:57:14;3.22;;;2.95;;
6015;SDS011;3036;49.960;8.454;2023-06-22T00:59:43;3.47;;;3.28;;
6015;SDS011;3036;49.960;8.454;2023-06-22T01:02:10;3.00;;;2.90;;
6015;SDS011;3036;49.960;8.454;2023-06-22T01:04:38;3.55;;;3.30;;
6015;SDS011;3036;49.960;8.454;2023-06-22T01:07:06;3.70;;;3.40;;
6015;SDS011;3036;49.960;8.454;2023-06-22T01:09:41;3.55;;;3.28;;
6015;SDS011;3036;49.960;8.454;2023-06-22T01:12:11;3.35;;;3.15;;
6015;SDS011;3036;49.960;8.454;2023-06-22T01:14:40;3.40;;;3.17;;
6015;SDS011;3036;49.960;8.454;2023-06-22T01:17:10;3.30;;;3.13;;
6015;SDS011;3036;49.960;8.454;2023-06-22T01:19:43;3.78;;;3.50;;
6015;SDS011;3036;49.960;8.454;2023-06-22T01:22:12;3.47;;;3.28;;
6015;SDS011;3036;49.960;8.454;2023-06-22T01:24:41;3.42;;;3.13;;
6015;SDS011;3036;49.960;8.454;2023-06-22T01:27:14;3.63;;;3.35;;
6015;SDS011;3036;49.960;8.454;2023-06-22T01:29:48;3.33;;;3.13;;
6015;SDS011;3036;49.960;8.454;2023-06-22T01:32:15;6.07;;;3.42;;
6015;SDS011;3036;49.960;8.454;2023-06-22T01:34:42;3.42;;;3.22;;
6015;SDS011;3036;49.960;8.454;2023-06-22T01:37:09;4.28;;;3.90;;
6015;SDS011;3036;49.960;8.454;2023-06-22T01:39:37;4.40;;;3.75;;
6015;SDS011;3036;49.960;8.454;2023-06-22T01:42:04;5.50;;;4.32;;
6015;SDS011;3036;49.960;8.454;2023-06-22T01:44:31;4.60;;;3.55;;
6015;SDS011;3036;49.960;8.454;2023-06-22T01:47:00;4.20;;;3.90;;
6015;SDS011;3036;49.960;8.454;2023-06-22T01:49:27;5.93;;;3.88;;
6015;SDS011;3036;49.960;8.454;2023-06-22T01:51:54;4.40;;;4.00;;
6015;SDS011;3036;49.960;8.454;2023-06-22T01:54:21;4.03;;;3.83;;
6015;SDS011;3036;49.960;8.454;2023-06-22T01:56:48;4.00;;;3.70;;
6015;SDS011;3036;49.960;8.454;2023-06-22T01:59:18;5.78;;;4.07;;
6015;SDS011;3036;49.960;8.454;2023-06-22T02:01:48;4.30;;;4.00;;
6015;SDS011;3036;49.960;8.454;2023-06-22T02:04:19;4.40;;;4.00;;
6015;SDS011;3036;49.960;8.454;2023-06-22T02:06:47;4.15;;;3.85;;
6015;SDS011;3036;49.960;8.454;2023-06-22T02:09:16;5.03;;;4.57;;
6015;SDS011;3036;49.960;8.454;2023-06-22T02:11:44;4.22;;;4.00;;
6015;SDS011;3036;49.960;8.454;2023-06-22T02:14:11;5.15;;;4.75;;
6015;SDS011;3036;49.960;8.454;2023-06-22T02:16:38;4.88;;;4.43;;
6015;SDS011;3036;49.960;8.454;2023-06-22T02:19:06;4.22;;;3.92;;
6015;SDS011;3036;49.960;8.454;2023-06-22T02:21:34;4.38;;;3.88;;
6015;SDS011;3036;49.960;8.454;2023-06-22T02:24:01;4.97;;;4.57;;
6015;SDS011;3036;49.960;8.454;2023-06-22T02:26:29;5.22;;;4.40;;
6015;SDS011;3036;49.960;8.454;2023-06-22T02:28:56;4.38;;;4.07;;
6015;SDS011;3036;49.960;8.454;2023-06-22T02:31:24;4.55;;;4.13;;
6015;SDS011;3036;49.960;8.454;2023-06-22T02:33:55;4.65;;;4.20;;
6015;SDS011;3036;49.960;8.454;2023-06-22T02:36:22;4.63;;;4.28;;
6015;SDS011;3036;49.960;8.454;2023-06-22T02:38:53;4.72;;;4.07;;
6015;SDS011;3036;49.960;8.454;2023-06-22T02:41:22;4.47;;;4.15;;
6015;SDS011;3036;49.960;8.454;2023-06-22T02:43:49;4.40;;;4.10;;
6015;SDS011;3036;49.960;8.454;2023-06-22T02:46:16;5.10;;;4.70;;
6015;SDS011;3036;49.960;8.454;2023-06-22T02:48:43;5.03;;;4.63;;
6015;SDS011;3036;49.960;8.454;2023-06-22T02:51:10;4.50;;;4.13;;
6015;SDS011;3036;49.960;8.454;2023-06-22T02:53:37;5.28;;;4.80;;
6015;SDS011;3036;49.960;8.454;2023-06-22T02:56:05;5.47;;;4.88;;
6015;SDS011;3036;49.960;8.454;2023-06-22T02:58:33;4.85;;;4.47;;
6015;SDS011;3036;49.960;8.454;2023-06-22T03:01:03;4.68;;;4.25;;
6015;SDS011;3036;49.960;8.454;2023-06-22T03:03:30;5.38;;;4.88;;
6015;SDS011;3036;49.960;8.454;2023-06-22T03:05:57;4.90;;;4.50;;
6015;SDS011;3036;49.960;8.454;2023-06-22T03:08:25;5.82;;;4.93;;
6015;SDS011;3036;49.960;8.454;2023-06-22T03:10:52;6.55;;;4.30;;
6015;SDS011;3036;49.960;8.454;2023-06-22T03:13:21;5.22;;;4.55;;
6015;SDS011;3036;49.960;8.454;2023-06-22T03:15:48;4.90;;;4.47;;
6015;SDS011;3036;49.960;8.454;2023-06-22T03:18:15;4.93;;;4.53;;
6015;SDS011;3036;49.960;8.454;2023-06-22T03:20:42;5.47;;;4.97;;
6015;SDS011;3036;49.960;8.454;2023-06-22T03:23:09;4.57;;;4.28;;
6015;SDS011;3036;49.960;8.454;2023-06-22T03:25:36;4.70;;;4.30;;
6015;SDS011;3036;49.960;8.454;2023-06-22T03:28:03;5.10;;;4.60;;
6015;SDS011;3036;49.960;8.454;2023-06-22T03:30:32;4.88;;;4.38;;
6015;SDS011;3036;49.960;8.454;2023-06-22T03:32:59;4.28;;;3.97;;
6015;SDS011;3036;49.960;8.454;2023-06-22T03:35:26;6.30;;;4.78;;
6015;SDS011;3036;49.960;8.454;2023-06-22T03:37:53;4.78;;;4.38;;
6015;SDS011;3036;49.960;8.454;2023-06-22T03:40:23;5.82;;;5.18;;
6015;SDS011;3036;49.960;8.454;2023-06-22T03:42:50;5.40;;;4.90;;
6015;SDS011;3036;49.960;8.454;2023-06-22T03:45:17;5.18;;;4.75;;
6015;SDS011;3036;49.960;8.454;2023-06-22T03:47:45;6.97;;;4.70;;
6015;SDS011;3036;49.960;8.454;2023-06-22T03:50:12;5.15;;;4.75;;
6015;SDS011;3036;49.960;8.454;2023-06-22T03:52:39;5.22;;;4.72;;
6015;SDS011;3036;49.960;8.454;2023-06-22T03:55:06;5.45;;;4.95;;
6015;SDS011;3036;49.960;8.454;2023-06-22T03:57:34;7.40;;;5.43;;
6015;SDS011;3036;49.960;8.454;2023-06-22T04:00:01;4.97;;;4.65;;
6015;SDS011;3036;49.960;8.454;2023-06-22T04:02:30;6.55;;;5.03;;
6015;SDS011;3036;49.960;8.454;2023-06-22T04:04:59;5.70;;;5.20;;
6015;SDS011;3036;49.960;8.454;2023-06-22T04:07:26;5.32;;;4.53;;
6015;SDS011;3036;49.960;8.454;2023-06-22T04:09:53;5.68;;;5.15;;
6015;SDS011;3036;49.960;8.454;2023-06-22T04:12:20;5.47;;;5.05;;
6015;SDS011;3036;49.960;8.454;2023-06-22T04:14:47;4.95;;;4.53;;
6015;SDS011;3036;49.960;8.454;2023-06-22T04:17:14;5.50;;;4.70;;
6015;SDS011;3036;49.960;8.454;2023-06-22T04:19:42;5.47;;;5.00;;
6015;SDS011;3036;49.960;8.454;2023-06-22T04:22:11;5.57;;;5.07;;
6015;SDS011;3036;49.960;8.454;2023-06-22T04:24:38;5.80;;;5.07;;
6015;SDS011;3036;49.960;8.454;2023-06-22T04:27:05;4.72;;;4.43;;
6015;SDS011;3036;49.960;8.454;2023-06-22T04:29:32;5.60;;;4.85;;
6015;SDS011;3036;49.960;8.454;2023-06-22T04:31:59;5.30;;;4.90;;
6015;SDS011;3036;49.960;8.454;2023-06-22T04:34:28;5.38;;;4.88;;
6015;SDS011;3036;49.960;8.454;2023-06-22T04:36:55;8.35;;;5.45;;
6015;SDS011;3036;49.960;8.454;2023-06-22T04:39:23;6.50;;;5.07;;
6015;SDS011;3036;49.960;8.454;2023-06-22T04:41:52;7.60;;;4.65;;
6015;SDS011;3036;49.960;8.454;2023-06-22T04:44:20;5.18;;;4.78;;
6015;SDS011;3036;49.960;8.454;2023-06-22T04:46:49;6.18;;;5.60;;
6015;SDS011;3036;49.960;8.454;2023-06-22T04:49:19;5.97;;;5.43;;
6015;SDS011;3036;49.960;8.454;2023-06-22T04:51:47;5.53;;;5.13;;
6015;SDS011;3036;49.960;8.454;2023-06-22T04:54:16;5.35;;;4.85;;
6015;SDS011;3036;49.960;8.454;2023-06-22T04:56:45;5.70;;;5.10;;
6015;SDS011;3036;49.960;8.454;2023-06-22T04:59:13;5.47;;;4.97;;
6015;SDS011;3036;49.960;8.454;2023-06-22T05:01:40;6.38;;;5.03;;
6015;SDS011;3036;49.960;8.454;2023-06-22T05:04:07;5.78;;;5.25;;
6015;SDS011;3036;49.960;8.454;2023-06-22T05:06:34;5.68;;;5.18;;
6015;SDS011;3036;49.960;8.454;2023-06-22T05:09:04;5.95;;;5.35;;
6015;SDS011;3036;49.960;8.454;2023-06-22T05:11:32;5.57;;;5.03;;
6015;SDS011;3036;49.960;8.454;2023-06-22T05:14:00;6.32;;;5.25;;
6015;SDS011;3036;49.960;8.454;2023-06-22T05:16:27;5.55;;;4.97;;
6015;SDS011;3036;49.960;8.454;2023-06-22T05:18:54;6.47;;;5.30;;
6015;SDS011;3036;49.960;8.454;2023-06-22T05:21:22;7.75;;;5.32;;
6015;SDS011;3036;49.960;8.454;2023-06-22T05:23:49;6.90;;;5.45;;
6015;SDS011;3036;49.960;8.454;2023-06-22T05:26:16;6.05;;;5.45;;
6015;SDS011;3036;49.960;8.454;2023-06-22T05:28:43;9.07;;;5.50;;
6015;SDS011;3036;49.960;8.454;2023-06-22T05:31:13;7.13;;;5.63;;
6015;SDS011;3036;49.960;8.454;2023-06-22T05:33:40;6.10;;;5.60;;
6015;SDS011;3036;49.960;8.454;2023-06-22T05:36:07;6.65;;;5.97;;
6015;SDS011;3036;49.960;8.454;2023-06-22T05:38:35;6.05;;;5.47;;
6015;SDS011;3036;49.960;8.454;2023-06-22T05:41:02;5.53;;;5.07;;
6015;SDS011;3036;49.960;8.454;2023-06-22T05:43:29;7.63;;;5.22;;
6015;SDS011;3036;49.960;8.454;2023-06-22T05:45:56;7.10;;;5.07;;
6015;SDS011;3036;49.960;8.454;2023-06-22T05:48:24;5.85;;;5.30;;
6015;SDS011;3036;49.960;8.454;2023-06-22T05:50:52;6.15;;;4.85;;
6015;SDS011;3036;49.960;8.454;2023-06-22T05:53:19;5.25;;;4.85;;
6015;SDS011;3036;49.960;8.454;2023-06-22T05:55:46;5.35;;;4.85;;
6015;SDS011;3036;49.960;8.454;2023-06-22T05:58:13;5.55;;;4.95;;
6015;SDS011;3036;49.960;8.454;2023-06-22T06:00:40;5.15;;;4.65;;
6015;SDS011;3036;49.960;8.454;2023-06-22T06:03:08;5.03;;;4.50;;
6015;SDS011;3036;49.960;8.454;2023-06-22T06:05:37;5.70;;;5.15;;
6015;SDS011;3036;49.960;8.454;2023-06-22T06:08:05;4.78;;;4.47;;
6015;SDS011;3036;49.960;8.454;2023-06-22T06:10:32;11.38;;;4.50;;
6015;SDS011;3036;49.960;8.454;2023-06-22T06:12:59;4.45;;;4.20;;
6015;SDS011;3036;49.960;8.454;2023-06-22T06:15:29;5.22;;;4.05;;
6015;SDS011;3036;49.960;8.454;2023-06-22T06:17:56;5.30;;;4.35;;
6015;SDS011;3036;49.960;8.454;2023-06-22T06:20:24;5.20;;;4.57;;
6015;SDS011;3036;49.960;8.454;2023-06-22T06:22:54;4.72;;;3.97;;
6015;SDS011;3036;49.960;8.454;2023-06-22T06:25:21;4.93;;;4.50;;
6015;SDS011;3036;49.960;8.454;2023-06-22T06:27:49;5.18;;;4.45;;
6015;SDS011;3036;49.960;8.454;2023-06-22T06:30:17;4.80;;;4.40;;
6015;SDS011;3036;49.960;8.454;2023-06-22T06:32:45;4.32;;;3.92;;
6015;SDS011;3036;49.960;8.454;2023-06-22T06:35:12;5.00;;;4.60;;
6015;SDS011;3036;49.960;8.454;2023-06-22T06:37:40;4.57;;;4.30;;
6015;SDS011;3036;49.960;8.454;2023-06-22T06:40:09;4.97;;;4.47;;
6015;SDS011;3036;49.960;8.454;2023-06-22T06:42:37;4.57;;;4.18;;
6015;SDS011;3036;49.960;8.454;2023-06-22T06:45:07;4.88;;;4.32;;
6015;SDS011;3036;49.960;8.454;2023-06-22T06:47:34;4.28;;;3.97;;
6015;SDS011;3036;49.960;8.454;2023-06-22T06:50:01;4.68;;;4.28;;
6015;SDS011;3036;49.960;8.454;2023-06-22T06:52:28;4.40;;;4.10;;
6015;SDS011;3036;49.960;8.454;2023-06-22T06:54:55;4.45;;;4.15;;
6015;SDS011;3036;49.960;8.454;2023-06-22T06:57:23;5.85;;;5.22;;
6015;SDS011;3036;49.960;8.454;2023-06-22T06:59:53;5.07;;;4.57;;
6015;SDS011;3036;49.960;8.454;2023-06-22T07:02:21;4.32;;;4.05;;
6015;SDS011;3036;49.960;8.454;2023-06-22T07:04:48;5.30;;;4.90;;
6015;SDS011;3036;49.960;8.454;2023-06-22T07:07:16;5.13;;;4.32;;
6015;SDS011;3036;49.960;8.454;2023-06-22T07:09:43;5.60;;;5.03;;
6015;SDS011;3036;49.960;8.454;2023-06-22T07:12:10;4.95;;;4.53;;
6015;SDS011;3036;49.960;8.454;2023-06-22T07:14:38;4.93;;;4.53;;
6015;SDS011;3036;49.960;8.454;2023-06-22T07:17:05;5.28;;;4.85;;
6015;SDS011;3036;49.960;8.454;2023-06-22T07:19:32;4.82;;;4.43;;
6015;SDS011;3036;49.960;8.454;2023-06-22T07:21:59;4.93;;;4.53;;
6015;SDS011;3036;49.960;8.454;2023-06-22T07:24:27;5.35;;;4.88;;
6015;SDS011;3036;49.960;8.454;2023-06-22T07:26:54;5.00;;;4.60;;
6015;SDS011;3036;49.960;8.454;2023-06-22T07:29:22;5.63;;;5.13;;
6015;SDS011;3036;49.960;8.454;2023-06-22T07:31:51;5.38;;;4.78;;
6015;SDS011;3036;49.960;8.454;2023-06-22T07:34:18;4.85;;;4.45;;
6015;SDS011;3036;49.960;8.454;2023-06-22T07:36:45;6.80;;;4.57;;
6015;SDS011;3036;49.960;8.454;2023-06-22T07:39:12;5.32;;;4.82;;
6015;SDS011;3036;49.960;8.454;2023-06-22T07:41:39;6.03;;;4.82;;
6015;SDS011;3036;49.960;8.454;2023-06-22T07:44:06;6.53;;;4.63;;
6015;SDS011;3036;49.960;8.454;2023-06-22T07:46:34;5.20;;;4.70;;
6015;SDS011;3036;49.960;8.454;2023-06-22T07:49:02;4.80;;;4.50;;
6015;SDS011;3036;49.960;8.454;2023-06-22T07:51:29;5.40;;;4.90;;
6015;SDS011;3036;49.960;8.454;2023-06-22T07:53:56;5.03;;;4.63;;
6015;SDS011;3036;49.960;8.454;2023-06-22T07:56:23;4.82;;;4.25;;
6015;SDS011;3036;49.960;8.454;2023-06-22T07:58:50;5.80;;;5.32;;
6015;SDS011;3036;49.960;8.454;2023-06-22T08:01:18;5.38;;;4.88;;
6015;SDS011;3036;49.960;8.454;2023-06-22T08:03:46;5.38;;;4.88;;
6015;SDS011;3036;49.960;8.454;2023-06-22T08:06:14;5.35;;;4.85;;
6015;SDS011;3036;49.960;8.454;2023-06-22T08:08:41;5.47;;;5.07;;
6015;SDS011;3036;49.960;8.454;2023-06-22T08:11:08;5.97;;;5.47;;
6015;SDS011;3036;49.960;8.454;2023-06-22T08:13:35;5.30;;;4.85;;
6015;SDS011;3036;49.960;8.454;2023-06-22T08:16:03;5.40;;;4.90;;
6015;SDS011;3036;49.960;8.454;2023-06-22T08:18:30;4.70;;;4.40;;
6015;SDS011;3036;49.960;8.454;2023-06-22T08:20:57;5.25;;;4.85;;
6015;SDS011;3036;49.960;8.454;2023-06-22T08:23:25;5.20;;;4.80;;
6015;SDS011;3036;49.960;8.454;2023-06-22T08:25:52;5.88;;;5.32;;
6015;SDS011;3036;49.960;8.454;2023-06-22T08:28:19;5.70;;;5.30;;
6015;SDS011;3036;49.960;8.454;2023-06-22T08:30:46;5.47;;;5.07;;
6015;SDS011;3036;49.960;8.454;2023-06-22T08:33:13;5.50;;;5.10;;
6015;SDS011;3036;49.960;8.454;2023-06-22T08:35:40;6.28;;;5.53;;
6015;SDS011;3036;49.960;8.454;2023-06-22T08:38:07;5.35;;;4.85;;
6015;SDS011;3036;49.960;8.454;2023-06-22T08:40:36;6.30;;;5.75;;
6015;SDS011;3036;49.960;8.454;2023-06-22T08:43:03;6.38;;;5.75;;
6015;SDS011;3036;49.960;8.454;2023-06-22T08:45:30;5.68;;;5.18;;
6015;SDS011;3036;49.960;8.454;2023-06-22T08:47:57;5.53;;;5.07;;
6015;SDS011;3036;49.960;8.454;2023-06-22T08:50:24;5.75;;;5.07;;
6015;SDS011;3036;49.960;8.454;2023-06-22T08:52:51;5.90;;;5.43;;
6015;SDS011;3036;49.960;8.454;2023-06-22T08:55:18;6.28;;;4.95;;
6015;SDS011;3036;49.960;8.454;2023-06-22T08:57:46;6.22;;;5.45;;
6015;SDS011;3036;49.960;8.454;2023-06-22T09:00:14;5.50;;;5.00;;
6015;SDS011;3036;49.960;8.454;2023-06-22T09:02:42;5.97;;;5.40;;
6015;SDS011;3036;49.960;8.454;2023-06-22T09:05:09;5.40;;;4.97;;
6015;SDS011;3036;49.960;8.454;2023-06-22T09:07:36;5.32;;;4.82;;
6015;SDS011;3036;49.960;8.454;2023-06-22T09:10:04;5.93;;;4.38;;
6015;SDS011;3036;49.960;8.454;2023-06-22T09:12:31;5.30;;;4.80;;
6015;SDS011;3036;49.960;8.454;2023-06-22T09:15:02;5.15;;;4.75;;
6015;SDS011;3036;49.960;8.454;2023-06-22T09:17:29;5.53;;;5.03;;
6015;SDS011;3036;49.960;8.454;2023-06-22T09:19:56;5.20;;;4.70;;
6015;SDS011;3036;49.960;8.454;2023-06-22T09:22:23;4.88;;;4.50;;
6015;SDS011;3036;49.960;8.454;2023-06-22T09:24:54;5.25;;;4.78;;
6015;SDS011;3036;49.960;8.454;2023-06-22T09:27:21;5.97;;;4.90;;
6015;SDS011;3036;49.960;8.454;2023-06-22T09:29:48;4.38;;;4.07;;
6015;SDS011;3036;49.960;8.454;2023-06-22T09:32:16;5.25;;;4.85;;
6015;SDS011;3036;49.960;8.454;2023-06-22T09:34:43;4.35;;;4.15;;
6015;SDS011;3036;49.960;8.454;2023-06-22T09:37:10;5.07;;;4.68;;
6015;SDS011;3036;49.960;8.454;2023-06-22T09:39:37;4.93;;;4.53;;
6015;SDS011;3036;49.960;8.454;2023-06-22T09:42:05;5.00;;;4.50;;
6015;SDS011;3036;49.960;8.454;2023-06-22T09:44:32;4.32;;;4.13;;
6015;SDS011;3036;49.960;8.454;2023-06-22T09:46:59;3.92;;;3.72;;
6015;SDS011;3036;49.960;8.454;2023-06-22T09:49:27;4.60;;;4.30;;
6015;SDS011;3036;49.960;8.454;2023-06-22T09:51:54;5.00;;;4.60;;
6015;SDS011;3036;49.960;8.454;2023-06-22T09:54:22;7.47;;;5.00;;
6015;SDS011;3036;49.960;8.454;2023-06-22T09:56:49;4.18;;;3.97;;
6015;SDS011;3036;49.960;8.454;2023-06-22T09:59:16;4.57;;;4.07;;
6015;SDS011;3036;49.960;8.454;2023-06-22T10:01:43;4.05;;;3.75;;
6015;SDS011;3036;49.960;8.454;2023-06-22T10:04:10;4.68;;;4.40;;
6015;SDS011;3036;49.960;8.454;2023-06-22T10:06:39;4.35;;;3.95;;
6015;SDS011;3036;49.960;8.454;2023-06-22T10:09:06;4.07;;;3.88;;
6015;SDS011;3036;49.960;8.454;2023-06-22T10:11:33;4.88;;;4.57;;
6015;SDS011;3036;49.960;8.454;2023-06-22T10:14:02;4.40;;;4.10;;
6015;SDS011;3036;49.960;8.454;2023-06-22T10:16:32;4.32;;;3.92;;
6015;SDS011;3036;49.960;8.454;2023-06-22T10:19:00;4.45;;;4.15;;
6015;SDS011;3036;49.960;8.454;2023-06-22T10:21:27;4.18;;;3.85;;
6015;SDS011;3036;49.960;8.454;2023-06-22T10:23:56;3.95;;;3.75;;
6015;SDS011;3036;49.960;8.454;2023-06-22T10:26:24;6.10;;;4.32;;
6015;SDS011;3036;49.960;8.454;2023-06-22T10:28:53;4.15;;;3.95;;
6015;SDS011;3036;49.960;8.454;2023-06-22T10:31:20;4.60;;;4.22;;
6015;SDS011;3036;49.960;8.454;2023-06-22T10:33:48;4.80;;;4.40;;
6015;SDS011;3036;49.960;8.454;2023-06-22T10:36:15;4.32;;;4.07;;
6015;SDS011;3036;49.960;8.454;2023-06-22T10:38:42;4.45;;;4.15;;
6015;SDS011;3036;49.960;8.454;2023-06-22T10:41:11;6.43;;;4.30;;
6015;SDS011;3036;49.960;8.454;2023-06-22T10:43:38;4.18;;;3.97;;
6015;SDS011;3036;49.960;8.454;2023-06-22T10:46:06;5.13;;;4.10;;
6015;SDS011;3036;49.960;8.454;2023-06-22T10:48:33;4.45;;;4.13;;
6015;SDS011;3036;49.960;8.454;2023-06-22T10:51:00;4.55;;;4.18;;
6015;SDS011;3036;49.960;8.454;2023-06-22T10:53:27;4.30;;;3.90;;
6015;SDS011;3036;49.960;8.454;2023-06-22T10:55:54;5.20;;;4.20;;
6015;SDS011;3036;49.960;8.454;2023-06-22T10:58:22;4.07;;;3.70;;
6015;SDS011;3036;49.960;8.454;2023-06-22T11:00:50;4.57;;;4.22;;
6015;SDS011;3036;49.960;8.454;2023-06-22T11:03:17;5.45;;;3.80;;
6015;SDS011;3036;49.960;8.454;2023-06-22T11:05:44;5.88;;;3.90;;
6015;SDS011;3036;49.960;8.454;2023-06-22T11:08:12;4.65;;;4.25;;
6015;SDS011;3036;49.960;8.454;2023-06-22T11:10:40;4.07;;;3.70;;
6015;SDS011;3036;49.960;8.454;2023-06-22T11:13:07;5.22;;;4.18;;
6015;SDS011;3036;49.960;8.454;2023-06-22T11:15:36;4.82;;;4.20;;
6015;SDS011;3036;49.960;8.454;2023-06-22T11:18:03;5.32;;;3.80;;
6015;SDS011;3036;49.960;8.454;2023-06-22T11:20:32;5.68;;;4.60;;
6015;SDS011;3036;49.960;8.454;2023-06-22T11:23:03;5.57;;;4.15;;
6015;SDS011;3036;49.960;8.454;2023-06-22T11:25:30;4.72;;;4.30;;
6015;SDS011;3036;49.960;8.454;2023-06-22T11:27:59;4.32;;;4.00;;
6015;SDS011;3036;49.960;8.454;2023-06-22T11:30:26;5.32;;;4.82;;
6015;SDS011;3036;49.960;8.454;2023-06-22T11:32:56;4.50;;;4.20;;
6015;SDS011;3036;49.960;8.454;2023-06-22T11:35:23;4.22;;;3.92;;
6015;SDS011;3036;49.960;8.454;2023-06-22T11:37:50;4.25;;;3.95;;
6015;SDS011;3036;49.960;8.454;2023-06-22T11:40:18;7.20;;;4.80;;
6015;SDS011;3036;49.960;8.454;2023-06-22T11:42:45;4.43;;;4.00;;
6015;SDS011;3036;49.960;8.454;2023-06-22T11:45:12;4.20;;;3.95;;
6015;SDS011;3036;49.960;8.454;2023-06-22T11:47:39;4.35;;;4.07;;
6015;SDS011;3036;49.960;8.454;2023-06-22T11:50:08;5.03;;;4.50;;
6015;SDS011;3036;49.960;8.454;2023-06-22T11:52:35;5.05;;;4.72;;
6015;SDS011;3036;49.960;8.454;2023-06-22T11:55:03;6.72;;;5.45;;
6015;SDS011;3036;49.960;8.454;2023-06-22T11:57:32;5.60;;;4.90;;
6015;SDS011;3036;49.960;8.454;2023-06-22T11:59:59;5.10;;;4.25;;
6015;SDS011;3036;49.960;8.454;2023-06-22T12:02:26;5.10;;;4.57;;
6015;SDS011;3036;49.960;8.454;2023-06-22T12:04:53;4.90;;;4.50;;
6015;SDS011;3036;49.960;8.454;2023-06-22T12:10:26;7.28;;;4.80;;
6015;SDS011;3036;49.960;8.454;2023-06-22T12:12:54;4.85;;;4.55;;
6015;SDS011;3036;49.960;8.454;2023-06-22T12:15:22;4.47;;;4.18;;
6015;SDS011;3036;49.960;8.454;2023-06-22T12:17:49;4.68;;;4.38;;
6015;SDS011;3036;49.960;8.454;2023-06-22T12:23:20;5.10;;;4.65;;
6015;SDS011;3036;49.960;8.454;2023-06-22T12:25:48;4.78;;;4.40;;
6015;SDS011;3036;49.960;8.454;2023-06-22T12:31:19;4.53;;;4.25;;
6015;SDS011;3036;49.960;8.454;2023-06-22T12:33:46;4.57;;;4.18;;
6015;SDS011;3036;49.960;8.454;2023-06-22T12:36:13;5.45;;;4.97;;
6015;SDS011;3036;49.960;8.454;2023-06-22T12:38:41;6.18;;;5.60;;
6015;SDS011;3036;49.960;8.454;2023-06-22T12:41:09;5.95;;;5.38;;
6015;SDS011;3036;49.960;8.454;2023-06-22T12:43:36;12.43;;;7.38;;
6015;SDS011;3036;49.960;8.454;2023-06-22T12:46:03;7.55;;;5.03;;
6015;SDS011;3036;49.960;8.454;2023-06-22T12:48:30;6.95;;;5.10;;
6015;SDS011;3036;49.960;8.454;2023-06-22T12:50:57;5.40;;;4.85;;
6015;SDS011;3036;49.960;8.454;2023-06-22T12:53:24;5.32;;;4.82;;
6015;SDS011;3036;49.960;8.454;2023-06-22T12:55:52;5.20;;;4.80;;
6015;SDS011;3036;49.960;8.454;2023-06-22T12:58:20;4.78;;;4.47;;
6015;SDS011;3036;49.960;8.454;2023-06-22T13:00:48;7.60;;;4.60;;
6015;SDS011;3036;49.960;8.454;2023-06-22T13:03:15;5.03;;;4.63;;
6015;SDS011;3036;49.960;8.454;2023-06-22T13:05:42;5.28;;;4.03;;
6015;SDS011;3036;49.960;8.454;2023-06-22T13:08:09;6.25;;;5.28;;
6015;SDS011;3036;49.960;8.454;2023-06-22T13:10:36;5.75;;;5.18;;
6015;SDS011;3036;49.960;8.454;2023-06-22T13:13:03;6.07;;;4.35;;
6015;SDS011;3036;49.960;8.454;2023-06-22T13:15:32;4.68;;;4.35;;
6015;SDS011;3036;49.960;8.454;2023-06-22T13:17:59;5.15;;;4.68;;
6015;SDS011;3036;49.960;8.454;2023-06-22T13:20:26;4.50;;;4.03;;
6015;SDS011;3036;49.960;8.454;2023-06-22T13:22:53;5.07;;;4.68;;
6015;SDS011;3036;49.960;8.454;2023-06-22T13:25:21;5.38;;;4.88;;
6015;SDS011;3036;49.960;8.454;2023-06-22T13:27:51;4.88;;;4.47;;
6015;SDS011;3036;49.960;8.454;2023-06-22T13:30:18;4.13;;;3.80;;
6015;SDS011;3036;49.960;8.454;2023-06-22T13:32:46;6.20;;;4.05;;
6015;SDS011;3036;49.960;8.454;2023-06-22T13:35:14;4.60;;;4.00;;
6015;SDS011;3036;49.960;8.454;2023-06-22T13:37:41;7.47;;;3.90;;
6015;SDS011;3036;49.960;8.454;2023-06-22T13:40:08;4.10;;;3.63;;
6015;SDS011;3036;49.960;8.454;2023-06-22T13:42:35;3.63;;;2.83;;
6015;SDS011;3036;49.960;8.454;2023-06-22T13:48:07;3.85;;;3.35;;
6015;SDS011;3036;49.960;8.454;2023-06-22T13:50:34;4.45;;;3.80;;
6015;SDS011;3036;49.960;8.454;2023-06-22T13:53:02;3.17;;;2.97;;
6015;SDS011;3036;49.960;8.454;2023-06-22T13:55:29;4.57;;;2.75;;
6015;SDS011;3036;49.960;8.454;2023-06-22T13:57:56;2.75;;;2.55;;
6015;SDS011;3036;49.960;8.454;2023-06-22T14:00:23;3.53;;;3.20;;
6015;SDS011;3036;49.960;8.454;2023-06-22T14:02:50;2.85;;;2.65;;
6015;SDS011;3036;49.960;8.454;2023-06-22T14:05:18;10.30;;;3.13;;
6015;SDS011;3036;49.960;8.454;2023-06-22T14:07:45;3.55;;;2.88;;
6015;SDS011;3036;49.960;8.454;2023-06-22T14:10:12;3.13;;;2.90;;
6015;SDS011;3036;49.960;8.454;2023-06-22T14:12:40;8.15;;;3.30;;
6015;SDS011;3036;49.960;8.454;2023-06-22T14:15:07;2.92;;;2.67;;
6015;SDS011;3036;49.960;8.454;2023-06-22T14:17:34;2.90;;;2.70;;
6015;SDS011;3036;49.960;8.454;2023-06-22T14:20:01;7.25;;;3.03;;
6015;SDS011;3036;49.960;8.454;2023-06-22T14:22:29;2.38;;;2.28;;
6015;SDS011;3036;49.960;8.454;2023-06-22T14:24:56;2.97;;;2.63;;
6015;SDS011;3036;49.960;8.454;2023-06-22T14:30:27;6.55;;;3.22;;
6015;SDS011;3036;49.960;8.454;2023-06-22T14:32:54;3.03;;;2.83;;
6015;SDS011;3036;49.960;8.454;2023-06-22T14:35:21;3.55;;;2.92;;
6015;SDS011;3036;49.960;8.454;2023-06-22T14:37:50;3.85;;;2.75;;
6015;SDS011;3036;49.960;8.454;2023-06-22T14:40:17;3.88;;;2.72;;
6015;SDS011;3036;49.960;8.454;2023-06-22T14:42:44;3.15;;;2.72;;
6015;SDS011;3036;49.960;8.454;2023-06-22T14:45:12;4.32;;;3.70;;
6015;SDS011;3036;49.960;8.454;2023-06-22T14:47:39;3.55;;;3.28;;
6015;SDS011;3036;49.960;8.454;2023-06-22T14:50:07;5.38;;;3.03;;
6015;SDS011;3036;49.960;8.454;2023-06-22T14:52:34;4.25;;;3.10;;
6015;SDS011;3036;49.960;8.454;2023-06-22T14:55:02;5.60;;;3.03;;
6015;SDS011;3036;49.960;8.454;2023-06-22T14:57:29;6.57;;;2.95;;
6015;SDS011;3036;49.960;8.454;2023-06-22T14:59:56;3.80;;;3.08;;
6015;SDS011;3036;49.960;8.454;2023-06-22T15:02:23;3.70;;;2.70;;
6015;SDS011;3036;49.960;8.454;2023-06-22T15:04:51;3.05;;;2.75;;
6015;SDS011;3036;49.960;8.454;2023-06-22T15:07:19;2.92;;;2.55;;
6015;SDS011;3036;49.960;8.454;2023-06-22T15:09:46;2.60;;;2.40;;
6015;SDS011;3036;49.960;8.454;2023-06-22T15:12:15;3.38;;;2.95;;
6015;SDS011;3036;49.960;8.454;2023-06-22T15:14:42;6.18;;;3.00;;
6015;SDS011;3036;49.960;8.454;2023-06-22T15:17:09;2.78;;;2.67;;
6015;SDS011;3036;49.960;8.454;2023-06-22T15:19:39;3.53;;;2.80;;
6015;SDS011;3036;49.960;8.454;2023-06-22T15:22:06;2.95;;;2.75;;
6015;SDS011;3036;49.960;8.454;2023-06-22T15:24:33;6.20;;;2.53;;
6015;SDS011;3036;49.960;8.454;2023-06-22T15:27:01;3.67;;;3.08;;
6015;SDS011;3036;49.960;8.454;2023-06-22T15:29:30;7.68;;;2.97;;
6015;SDS011;3036;49.960;8.454;2023-06-22T15:31:59;4.68;;;2.90;;